JST767 YBCG-YMML
Flight info
| Callsign | JST767 |
|---|---|
| Flight time | N/A |
| Altitude | 34000 |
| Route | APAGI Q16 ISKIM Q35 DORSU H119 ARBEY |
| Aircraft | A320/M-SDE3FGHIRWY/LB1 |
Departure
| Time | 2026-04-29 15:13 |
|---|---|
| Airport | Gold Coast Airport (YBCG) |
Arrival
| Time | N/A |
|---|---|
| Airport | Melbourne Airport (YMML) |
| Time | Latitude | Longitude | Altitude | Speed | Heading |
|---|---|---|---|---|---|
| 2026-04-29 14:26 | -28.16573 | 153.51110 | 36 ft | 0 kts | 50° |
| 2026-04-29 14:59 | -28.16590 | 153.51090 | 35 ft | 4 kts | 38° |
| 2026-04-29 14:59 | -28.16613 | 153.51074 | 35 ft | 4 kts | 21° |
| 2026-04-29 14:59 | -28.16637 | 153.51067 | 35 ft | 1 kts | 7° |
| 2026-04-29 15:00 | -28.16641 | 153.51066 | 35 ft | 0 kts | 7° |
| 2026-04-29 15:03 | -28.16639 | 153.51066 | 35 ft | 1 kts | 351° |
| 2026-04-29 15:03 | -28.16635 | 153.51060 | 35 ft | 1 kts | 298° |
| 2026-04-29 15:04 | -28.16631 | 153.51038 | 35 ft | 4 kts | 283° |
| 2026-04-29 15:04 | -28.16614 | 153.51002 | 35 ft | 6 kts | 314° |
| 2026-04-29 15:04 | -28.16570 | 153.50976 | 35 ft | 8 kts | 331° |
| 2026-04-29 15:04 | -28.16513 | 153.50940 | 35 ft | 10 kts | 331° |
| 2026-04-29 15:05 | -28.16488 | 153.50880 | 35 ft | 9 kts | 253° |
| 2026-04-29 15:05 | -28.16475 | 153.50813 | 35 ft | 10 kts | 322° |
| 2026-04-29 15:05 | -28.16414 | 153.50772 | 35 ft | 11 kts | 330° |
| 2026-04-29 15:05 | -28.16345 | 153.50727 | 35 ft | 12 kts | 331° |
| 2026-04-29 15:06 | -28.16268 | 153.50678 | 35 ft | 13 kts | 331° |
| 2026-04-29 15:06 | -28.16184 | 153.50626 | 35 ft | 14 kts | 330° |
| 2026-04-29 15:06 | -28.16095 | 153.50568 | 35 ft | 15 kts | 330° |
| 2026-04-29 15:06 | -28.16000 | 153.50507 | 35 ft | 16 kts | 330° |
| 2026-04-29 15:07 | -28.15900 | 153.50443 | 35 ft | 17 kts | 330° |
| 2026-04-29 15:07 | -28.15793 | 153.50376 | 35 ft | 18 kts | 330° |
| 2026-04-29 15:07 | -28.15709 | 153.50323 | 35 ft | 10 kts | 330° |
| 2026-04-29 15:07 | -28.15647 | 153.50282 | 35 ft | 11 kts | 330° |
| 2026-04-29 15:08 | -28.15604 | 153.50221 | 35 ft | 6 kts | 272° |
| 2026-04-29 15:08 | -28.15605 | 153.50205 | 35 ft | 0 kts | 260° |
| 2026-04-29 15:09 | -28.15605 | 153.50204 | 35 ft | 0 kts | 260° |
| 2026-04-29 15:09 | -28.15606 | 153.50198 | 35 ft | 5 kts | 257° |
| 2026-04-29 15:10 | -28.15633 | 153.50130 | 35 ft | 9 kts | 241° |
| 2026-04-29 15:10 | -28.15680 | 153.50091 | 35 ft | 9 kts | 167° |
| 2026-04-29 15:10 | -28.15708 | 153.50107 | 35 ft | 0 kts | 149° |
| 2026-04-29 15:12 | -28.15717 | 153.50113 | 35 ft | 15 kts | 149° |
| 2026-04-29 15:12 | -28.16048 | 153.50325 | 35 ft | 93 kts | 151° |
| 2026-04-29 15:13 | -28.16814 | 153.50813 | 36 ft | 157 kts | 151° |
| 2026-04-29 15:13 | -28.17856 | 153.51489 | 411 ft | 175 kts | 151° |
| 2026-04-29 15:13 | -28.18888 | 153.52154 | 1260 ft | 169 kts | 152° |
| 2026-04-29 15:13 | -28.19936 | 153.52798 | 1823 ft | 183 kts | 155° |
| 2026-04-29 15:14 | -28.21174 | 153.53365 | 2584 ft | 195 kts | 160° |
| 2026-04-29 15:14 | -28.22415 | 153.53833 | 3702 ft | 180 kts | 158° |
| 2026-04-29 15:14 | -28.23106 | 153.54097 | 4159 ft | 178 kts | 157° |